Time;durP1;ratioP1;P1;durP2;ratioP2;P2;SDS_P1;SDS_P2;PMS_P1;PMS_P2;Temp;Humidity;BMP_temperature;BMP_pressure;BME280_temperature;BME280_humidity;BME280_pressure;Samples;Min_cycle;Max_cycle;Signal;HPM_P1;HPM_P2
2022/06/26 00:01:40;;;;;;;13.52;12.13;;;17.80;99.90;;;;;;4973975;28;21386;-69
2022/06/26 00:04:06;;;;;;;13.80;12.27;;;17.80;99.90;;;;;;4963526;28;20566;-69
2022/06/26 00:06:32;;;;;;;14.48;13.27;;;17.80;99.90;;;;;;4954396;28;20080;-69
2022/06/26 00:08:58;;;;;;;14.15;12.27;;;17.80;99.90;;;;;;4968121;28;20041;-69
2022/06/26 00:11:24;;;;;;;14.55;13.10;;;17.80;99.90;;;;;;4982681;28;20056;-68
2022/06/26 00:13:50;;;;;;;13.55;12.25;;;17.80;99.90;;;;;;4975655;28;20046;-69
2022/06/26 00:16:16;;;;;;;14.68;13.15;;;17.80;99.90;;;;;;4983771;28;20529;-69
2022/06/26 00:18:42;;;;;;;13.85;12.55;;;17.80;99.90;;;;;;4986166;28;20045;-69
2022/06/26 00:21:09;;;;;;;13.30;12.00;;;17.80;99.90;;;;;;4985585;28;20058;-69
2022/06/26 00:23:35;;;;;;;14.52;13.02;;;17.80;99.90;;;;;;4979423;28;20092;-69
2022/06/26 00:26:02;;;;;;;14.10;12.60;;;17.80;99.90;;;;;;4984184;28;20392;-69
2022/06/26 00:28:31;;;;;;;14.02;12.70;;;17.80;99.90;;;;;;4988921;28;20054;-69
2022/06/26 00:30:57;;;;;;;13.70;12.40;;;17.80;99.90;;;;;;4989893;28;20042;-69
2022/06/26 00:33:23;;;;;;;14.27;12.70;;;17.80;99.90;;;;;;5011265;28;20070;-69
2022/06/26 00:35:49;;;;;;;13.98;12.57;;;17.80;99.90;;;;;;4978158;28;20053;-68
2022/06/26 00:38:14;;;;;;;13.52;12.10;;;17.80;99.90;;;;;;4966819;28;20736;-70
2022/06/26 00:40:42;;;;;;;13.50;12.30;;;17.80;99.90;;;;;;4976119;28;20049;-68
2022/06/26 00:43:08;;;;;;;13.52;12.27;;;17.80;99.90;;;;;;4982717;28;20250;-68
2022/06/26 00:45:35;;;;;;;13.88;12.68;;;17.80;99.90;;;;;;4976339;28;20176;-68
2022/06/26 00:48:03;;;;;;;16.85;15.25;;;17.90;99.90;;;;;;4982679;28;20117;-69
2022/06/26 00:50:29;;;;;;;13.60;12.50;;;17.90;99.90;;;;;;4968064;28;20059;-68
2022/06/26 00:52:56;;;;;;;13.88;12.57;;;17.90;99.90;;;;;;4983280;28;20042;-68
2022/06/26 00:55:22;;;;;;;15.13;13.68;;;17.90;99.90;;;;;;4982168;28;20080;-68
2022/06/26 00:57:49;;;;;;;18.85;16.92;;;17.90;99.90;;;;;;4982888;28;20538;-68
2022/06/26 01:00:15;;;;;;;15.90;14.52;;;18.00;99.90;;;;;;4976512;28;20366;-69
2022/06/26 01:02:41;;;;;;;19.67;17.23;;;18.00;99.90;;;;;;4985866;28;20405;-69
2022/06/26 01:05:09;;;;;;;20.02;18.27;;;17.90;99.90;;;;;;4974723;28;20258;-69
2022/06/26 01:07:34;;;;;;;18.17;16.67;;;17.90;99.90;;;;;;4975077;28;20073;-68
2022/06/26 01:10:04;;;;;;;21.35;19.42;;;17.90;99.90;;;;;;4985321;28;20141;-68
2022/06/26 01:12:31;;;;;;;21.52;19.52;;;18.00;99.90;;;;;;4984986;28;20046;-68
2022/06/26 01:14:58;;;;;;;21.60;19.52;;;18.00;99.90;;;;;;4984753;28;20524;-68
2022/06/26 01:17:24;;;;;;;20.95;19.10;;;18.00;99.90;;;;;;4982276;28;20381;-69
2022/06/26 01:19:50;;;;;;;22.42;20.17;;;18.00;99.90;;;;;;4981397;28;20090;-68
2022/06/26 01:22:16;;;;;;;17.55;16.08;;;18.00;99.90;;;;;;4952826;28;20381;-69
2022/06/26 01:24:42;;;;;;;19.55;17.42;;;18.10;99.90;;;;;;4982634;28;20038;-69
2022/06/26 01:27:07;;;;;;;17.95;16.35;;;18.10;99.90;;;;;;4964529;28;20091;-69
2022/06/26 01:29:33;;;;;;;19.60;17.90;;;18.10;99.90;;;;;;4968649;28;20052;-69
2022/06/26 01:31:59;;;;;;;21.45;19.42;;;18.10;99.90;;;;;;4985001;28;20046;-69
2022/06/26 01:34:25;;;;;;;19.02;17.20;;;18.10;99.90;;;;;;4948144;28;20112;-69
2022/06/26 01:36:50;;;;;;;17.73;15.98;;;18.10;99.90;;;;;;4983095;28;20330;-69
2022/06/26 01:39:20;;;;;;;17.38;15.68;;;18.10;99.90;;;;;;4949696;28;20133;-68
2022/06/26 01:41:50;;;;;;;19.50;17.83;;;18.10;99.90;;;;;;4982621;28;20133;-69
2022/06/26 01:44:16;;;;;;;20.98;19.15;;;18.20;99.90;;;;;;4972546;28;20453;-69
2022/06/26 01:46:42;;;;;;;16.52;14.93;;;18.10;99.90;;;;;;4967180;28;20046;-68
2022/06/26 01:49:08;;;;;;;17.00;15.20;;;18.10;99.90;;;;;;4971971;28;21236;-69
2022/06/26 01:51:34;;;;;;;16.70;15.20;;;18.10;99.90;;;;;;4969525;28;20489;-69
2022/06/26 01:53:59;;;;;;;18.25;16.45;;;18.10;99.90;;;;;;4960018;28;20160;-69
2022/06/26 01:56:25;;;;;;;20.77;18.80;;;18.20;99.90;;;;;;4984570;28;20050;-69
2022/06/26 01:58:51;;;;;;;18.13;16.52;;;18.20;99.90;;;;;;4994595;28;20140;-68
2022/06/26 02:01:18;;;;;;;19.85;17.75;;;18.10;99.90;;;;;;4983492;28;20596;-69
2022/06/26 02:03:44;;;;;;;17.60;16.00;;;18.20;99.90;;;;;;4975556;28;20137;-69
2022/06/26 02:06:10;;;;;;;19.38;17.48;;;18.20;99.90;;;;;;4982654;28;20072;-69
2022/06/26 02:08:36;;;;;;;19.42;17.52;;;18.20;99.90;;;;;;4976553;28;20046;-70
2022/06/26 02:13:47;;;;;;;40.85;26.02;;;18.10;99.90;;;;;;4993109;28;20046;-70
2022/06/26 02:16:16;;;;;;;24.38;19.38;;;18.10;99.90;;;;;;4978602;28;20054;-69
2022/06/26 02:18:45;;;;;;;56.40;35.40;;;18.10;99.90;;;;;;4984270;28;20058;-69
2022/06/26 02:21:14;;;;;;;30.92;27.77;;;18.00;99.90;;;;;;4986531;28;20057;-69
2022/06/26 02:23:41;;;;;;;21.38;19.27;;;18.00;99.90;;;;;;4986228;28;20105;-69
2022/06/26 02:26:07;;;;;;;23.50;21.13;;;18.00;99.90;;;;;;4977722;28;20050;-69
2022/06/26 02:28:35;;;;;;;28.40;25.60;;;17.90;99.90;;;;;;4979052;28;20042;-69
2022/06/26 02:31:01;;;;;;;22.90;20.67;;;17.90;99.90;;;;;;4987463;28;20046;-69
2022/06/26 02:33:28;;;;;;;20.00;18.05;;;17.90;99.90;;;;;;4985667;28;20165;-69
2022/06/26 02:35:55;;;;;;;20.05;18.20;;;17.90;99.90;;;;;;4969731;28;20188;-69
2022/06/26 02:38:23;;;;;;;21.00;18.98;;;17.90;99.90;;;;;;4981073;28;20449;-70
2022/06/26 02:40:49;;;;;;;20.70;18.85;;;17.90;99.90;;;;;;4994340;28;20417;-69
2022/06/26 02:43:15;;;;;;;33.47;27.30;;;17.80;99.90;;;;;;4986071;28;20054;-69
2022/06/26 02:45:41;;;;;;;35.28;29.45;;;17.80;99.90;;;;;;4964870;28;20538;-69
2022/06/26 02:48:07;;;;;;;18.00;16.42;;;17.80;99.90;;;;;;4982141;28;20038;-69
2022/06/26 02:50:33;;;;;;;16.65;15.15;;;17.80;99.90;;;;;;4978206;28;20050;-70
2022/06/26 02:52:58;;;;;;;25.85;23.20;;;17.80;99.90;;;;;;4988729;28;20436;-69
2022/06/26 02:55:24;;;;;;;29.60;26.25;;;17.80;99.90;;;;;;4983298;28;20397;-69
2022/06/26 02:57:50;;;;;;;18.20;16.67;;;17.70;99.90;;;;;;4989744;28;20570;-69
2022/06/26 03:00:16;;;;;;;15.95;14.50;;;17.70;99.90;;;;;;4975341;28;20119;-69
2022/06/26 03:02:42;;;;;;;20.55;18.67;;;17.70;99.90;;;;;;4984571;28;20033;-69
2022/06/26 03:05:08;;;;;;;18.48;16.67;;;17.70;99.90;;;;;;4988549;28;20089;-69
2022/06/26 03:07:34;;;;;;;18.08;16.33;;;17.60;99.90;;;;;;4983673;28;20050;-69
2022/06/26 03:10:00;;;;;;;19.25;17.45;;;17.60;99.90;;;;;;4971541;28;20096;-69
2022/06/26 03:12:26;;;;;;;22.35;19.90;;;17.60;99.90;;;;;;4982460;28;20111;-69
2022/06/26 03:14:51;;;;;;;19.65;17.00;;;17.60;99.90;;;;;;4968984;28;20165;-69
2022/06/26 03:17:18;;;;;;;13.48;12.18;;;17.60;99.90;;;;;;4973911;28;20064;-69
2022/06/26 03:19:44;;;;;;;15.90;13.93;;;17.50;99.90;;;;;;4983290;28;20512;-69
2022/06/26 03:22:10;;;;;;;14.48;12.98;;;17.50;99.90;;;;;;4989209;28;20058;-69
2022/06/26 03:24:36;;;;;;;14.70;13.20;;;17.40;99.90;;;;;;4950876;28;20105;-69
2022/06/26 03:27:05;;;;;;;12.88;11.63;;;17.40;99.90;;;;;;4988300;28;20049;-69
2022/06/26 03:29:31;;;;;;;13.63;12.32;;;17.40;99.90;;;;;;4984729;28;20563;-69
2022/06/26 03:31:57;;;;;;;24.35;18.13;;;17.40;99.90;;;;;;4970672;28;20066;-69
2022/06/26 03:34:22;;;;;;;13.30;12.00;;;17.30;99.90;;;;;;4950680;28;20479;-69
2022/06/26 03:36:48;;;;;;;11.40;10.30;;;17.30;99.90;;;;;;5000172;28;20128;-69
2022/06/26 03:39:14;;;;;;;11.00;9.63;;;17.30;99.90;;;;;;4987340;28;20050;-69
2022/06/26 03:41:40;;;;;;;12.68;11.30;;;17.20;99.90;;;;;;4988189;28;20057;-69
2022/06/26 03:44:06;;;;;;;10.23;9.23;;;17.10;99.90;;;;;;4970581;28;20042;-69
2022/06/26 03:46:32;;;;;;;9.70;8.73;;;17.10;99.90;;;;;;4989242;28;20108;-69
2022/06/26 03:48:59;;;;;;;11.70;10.52;;;17.10;99.90;;;;;;4989320;28;20408;-69
2022/06/26 03:51:25;;;;;;;13.43;12.13;;;17.10;99.90;;;;;;4997941;28;20050;-69
2022/06/26 03:53:51;;;;;;;8.55;7.43;;;17.10;99.90;;;;;;5000632;28;20112;-69
2022/06/26 03:56:20;;;;;;;9.80;7.70;;;17.00;99.90;;;;;;4986926;28;20042;-69
2022/06/26 03:58:46;;;;;;;8.57;6.90;;;17.00;99.90;;;;;;4973301;28;20041;-69
2022/06/26 04:01:11;;;;;;;8.60;7.78;;;17.00;99.90;;;;;;4984066;28;20393;-69
2022/06/26 04:03:37;;;;;;;8.10;7.40;;;17.00;99.90;;;;;;4982654;28;20060;-69
2022/06/26 04:06:03;;;;;;;8.68;7.55;;;16.90;99.90;;;;;;4984020;28;20144;-69
2022/06/26 04:08:29;;;;;;;8.05;7.25;;;17.00;99.90;;;;;;5013946;28;20559;-69
2022/06/26 04:10:55;;;;;;;9.15;7.20;;;16.90;99.90;;;;;;4977861;28;20046;-69
2022/06/26 04:13:20;;;;;;;7.28;6.53;;;16.90;99.90;;;;;;4967517;28;20046;-69
2022/06/26 04:15:46;;;;;;;8.13;7.32;;;16.90;99.90;;;;;;4990887;28;20054;-69
2022/06/26 04:18:12;;;;;;;8.60;7.68;;;16.90;99.90;;;;;;4979419;28;20042;-69
2022/06/26 04:20:38;;;;;;;9.93;8.93;;;16.80;99.90;;;;;;4987749;28;20080;-69
2022/06/26 04:23:09;;;;;;;9.30;8.30;;;16.80;99.90;;;;;;4966087;28;20133;-69
2022/06/26 04:25:37;;;;;;;10.18;8.40;;;16.80;99.90;;;;;;4987383;28;20058;-69
2022/06/26 04:28:05;;;;;;;9.25;8.05;;;16.80;99.90;;;;;;4985508;28;20080;-69
2022/06/26 04:30:30;;;;;;;9.18;7.88;;;16.80;99.90;;;;;;4971269;28;20046;-69
2022/06/26 04:32:56;;;;;;;9.02;8.20;;;16.80;99.90;;;;;;5013218;28;20054;-69
2022/06/26 04:35:22;;;;;;;10.13;7.82;;;16.80;99.90;;;;;;4953827;28;20097;-69
2022/06/26 04:37:48;;;;;;;8.20;7.35;;;16.80;99.90;;;;;;4980877;28;20042;-69
2022/06/26 04:40:15;;;;;;;10.18;7.70;;;16.80;99.90;;;;;;4997345;28;20049;-68
2022/06/26 04:42:42;;;;;;;7.90;7.00;;;16.80;99.90;;;;;;4983849;28;20069;-69
2022/06/26 04:45:09;;;;;;;7.25;6.57;;;16.80;99.90;;;;;;4988383;28;20055;-69
2022/06/26 04:47:35;;;;;;;8.50;7.57;;;16.80;99.90;;;;;;4972502;28;20054;-69
2022/06/26 04:50:01;;;;;;;7.35;6.65;;;16.80;99.90;;;;;;4981321;28;20504;-69
2022/06/26 04:52:27;;;;;;;7.50;6.68;;;16.90;99.90;;;;;;4957248;28;20485;-69
2022/06/26 04:54:53;;;;;;;7.82;7.00;;;16.80;99.90;;;;;;4997998;28;20248;-69
2022/06/26 04:57:19;;;;;;;8.05;7.25;;;16.90;99.90;;;;;;4995543;28;20056;-69
2022/06/26 04:59:45;;;;;;;9.75;8.75;;;16.90;99.90;;;;;;4988450;28;20092;-69
2022/06/26 05:02:10;;;;;;;9.90;8.20;;;17.00;99.90;;;;;;4954637;28;20033;-69
2022/06/26 05:04:37;;;;;;;8.90;8.10;;;17.00;99.90;;;;;;4987251;28;20050;-69
2022/06/26 05:07:03;;;;;;;9.90;9.02;;;17.10;99.90;;;;;;4988359;28;20045;-70
2022/06/26 05:09:29;;;;;;;9.20;8.13;;;17.10;99.90;;;;;;4964977;28;20038;-69
2022/06/26 05:11:55;;;;;;;10.05;9.05;;;17.20;99.90;;;;;;4963474;28;20045;-69
2022/06/26 05:14:21;;;;;;;11.25;10.15;;;17.20;99.90;;;;;;5013934;28;20053;-70
2022/06/26 05:16:46;;;;;;;11.07;10.07;;;17.30;99.90;;;;;;4985645;28;20133;-69
2022/06/26 05:19:13;;;;;;;11.18;10.18;;;17.30;99.90;;;;;;4988684;28;20679;-69
2022/06/26 05:21:39;;;;;;;10.73;9.75;;;17.30;99.90;;;;;;4964693;28;20135;-69
2022/06/26 05:24:05;;;;;;;11.73;10.70;;;17.30;99.90;;;;;;4987264;28;20052;-69
2022/06/26 05:26:31;;;;;;;11.68;10.48;;;17.30;99.90;;;;;;4980676;28;20050;-70
2022/06/26 05:28:57;;;;;;;13.30;12.13;;;17.30;99.90;;;;;;4989813;28;20041;-70
2022/06/26 05:31:23;;;;;;;14.52;13.13;;;17.30;99.90;;;;;;4972612;28;20042;-69
2022/06/26 05:33:49;;;;;;;13.75;12.45;;;17.30;99.90;;;;;;4971663;28;20084;-69
2022/06/26 05:36:15;;;;;;;14.02;12.73;;;17.30;99.90;;;;;;4973462;28;20053;-69
2022/06/26 05:38:41;;;;;;;14.55;13.18;;;17.30;99.90;;;;;;4988948;28;20046;-69
2022/06/26 05:41:07;;;;;;;15.60;14.25;;;17.30;99.90;;;;;;4984006;28;20038;-69
2022/06/26 05:43:33;;;;;;;16.67;15.25;;;17.30;99.90;;;;;;4986984;28;20128;-69
2022/06/26 05:45:59;;;;;;;17.67;16.13;;;17.30;99.90;;;;;;4993682;28;20065;-70
2022/06/26 05:48:26;;;;;;;17.95;16.35;;;17.30;99.90;;;;;;4984942;28;20398;-69
2022/06/26 05:50:52;;;;;;;20.60;18.50;;;17.30;99.90;;;;;;4986172;28;20052;-69
2022/06/26 05:53:22;;;;;;;20.50;18.45;;;17.30;99.90;;;;;;4994192;28;20070;-69
2022/06/26 05:55:48;;;;;;;20.52;18.63;;;17.30;99.90;;;;;;4984881;28;20519;-70
2022/06/26 05:58:15;;;;;;;18.15;16.65;;;17.30;99.90;;;;;;4985126;28;20058;-70
2022/06/26 06:00:41;;;;;;;16.25;14.63;;;17.30;99.90;;;;;;4987811;28;20053;-69
2022/06/26 06:03:07;;;;;;;16.98;15.35;;;17.30;99.90;;;;;;4985699;28;20048;-70
2022/06/26 06:05:33;;;;;;;17.02;15.40;;;17.30;99.90;;;;;;5011879;28;20133;-70
2022/06/26 06:07:59;;;;;;;18.88;17.10;;;17.30;99.90;;;;;;4986785;28;20040;-70
2022/06/26 06:10:25;;;;;;;17.30;15.65;;;17.40;99.90;;;;;;4976755;28;20037;-69
2022/06/26 06:12:51;;;;;;;19.23;17.42;;;17.40;99.90;;;;;;4980981;28;20046;-69
2022/06/26 06:15:18;;;;;;;24.73;22.38;;;17.50;99.90;;;;;;4987705;28;20061;-69
2022/06/26 06:17:44;;;;;;;21.80;19.67;;;17.50;99.90;;;;;;4979973;28;20412;-70
2022/06/26 06:20:21;;;;;;;22.08;20.17;;;17.60;99.90;;;;;;4995411;28;20053;-69
2022/06/26 06:22:51;;;;;;;25.30;22.88;;;17.70;99.90;;;;;;4987088;28;20057;-69
2022/06/26 06:25:22;;;;;;;23.98;21.65;;;17.80;99.90;;;;;;4986993;28;20045;-69
2022/06/26 06:27:49;;;;;;;25.13;22.55;;;17.80;99.90;;;;;;4981226;28;20034;-69
2022/06/26 06:30:15;;;;;;;23.88;21.60;;;17.80;99.90;;;;;;4983848;28;20560;-69
2022/06/26 06:32:42;;;;;;;22.70;20.70;;;17.90;99.90;;;;;;4999059;28;20062;-68
2022/06/26 06:35:11;;;;;;;23.70;21.50;;;17.90;99.90;;;;;;4989666;28;20457;-69
2022/06/26 06:37:37;;;;;;;23.65;21.55;;;17.90;99.90;;;;;;4974433;28;20058;-69
2022/06/26 06:40:03;;;;;;;21.80;19.92;;;17.90;99.90;;;;;;4990027;28;20061;-68
2022/06/26 06:42:29;;;;;;;23.92;21.73;;;18.00;99.90;;;;;;4974596;28;20042;-68
2022/06/26 06:44:55;;;;;;;22.73;20.83;;;18.00;99.90;;;;;;4992781;28;20803;-68
2022/06/26 06:47:20;;;;;;;21.52;19.63;;;17.90;99.90;;;;;;4992739;28;20034;-68
2022/06/26 06:49:46;;;;;;;26.20;23.85;;;18.00;99.90;;;;;;4980625;28;20042;-68
2022/06/26 06:52:12;;;;;;;24.13;21.92;;;18.00;99.90;;;;;;4989942;28;20076;-69
2022/06/26 06:54:38;;;;;;;25.17;22.88;;;17.90;99.90;;;;;;4982684;28;20050;-68
2022/06/26 06:57:04;;;;;;;25.33;22.98;;;17.90;99.90;;;;;;4972457;28;20501;-68
2022/06/26 06:59:30;;;;;;;27.25;24.75;;;17.90;99.90;;;;;;4965426;28;20140;-68
2022/06/26 07:01:55;;;;;;;29.08;26.38;;;17.90;99.90;;;;;;4978896;28;20089;-67
2022/06/26 07:04:24;;;;;;;27.73;25.30;;;18.00;99.90;;;;;;4988667;28;20050;-67
2022/06/26 07:06:50;;;;;;;28.10;25.50;;;18.10;99.90;;;;;;4990098;28;20038;-67
2022/06/26 07:09:16;;;;;;;29.65;27.02;;;18.20;99.90;;;;;;4991521;28;20925;-67
2022/06/26 07:11:43;;;;;;;26.63;24.33;;;18.30;99.90;;;;;;4980003;28;20101;-67
2022/06/26 07:14:09;;;;;;;25.70;23.30;;;18.30;99.90;;;;;;4988763;28;20038;-68
2022/06/26 07:16:35;;;;;;;28.73;26.25;;;18.40;99.90;;;;;;4987003;28;20046;-67
2022/06/26 07:19:01;;;;;;;28.42;25.80;;;18.40;99.90;;;;;;4972427;28;20109;-67
2022/06/26 07:21:27;;;;;;;29.33;26.75;;;18.40;99.90;;;;;;4967637;28;20046;-68
2022/06/26 07:23:53;;;;;;;27.88;25.38;;;18.50;99.90;;;;;;4990828;28;20111;-67
2022/06/26 07:26:19;;;;;;;28.35;25.83;;;18.50;99.90;;;;;;4991003;28;20382;-67
2022/06/26 07:28:45;;;;;;;29.55;27.00;;;18.60;99.90;;;;;;4989910;28;20074;-67
2022/06/26 07:31:10;;;;;;;27.05;24.88;;;18.60;99.90;;;;;;4975402;28;20042;-67
2022/06/26 07:36:21;;;;;;;27.13;24.65;;;18.60;99.90;;;;;;4989204;28;20058;-68
2022/06/26 07:38:46;;;;;;;29.13;26.45;;;18.60;99.90;;;;;;4988014;28;20053;-68
2022/06/26 07:41:15;;;;;;;24.92;22.90;;;18.60;99.90;;;;;;4988682;28;20461;-67
2022/06/26 07:43:41;;;;;;;28.25;25.88;;;18.60;99.90;;;;;;4980077;28;20085;-67
2022/06/26 07:46:07;;;;;;;28.58;26.13;;;18.60;99.90;;;;;;4979488;28;20464;-68
2022/06/26 07:48:33;;;;;;;27.92;25.55;;;18.70;99.90;;;;;;4988461;28;20485;-68
2022/06/26 07:51:00;;;;;;;26.23;24.00;;;18.70;99.90;;;;;;4981676;28;20092;-68
2022/06/26 07:53:25;;;;;;;28.85;26.25;;;18.80;99.90;;;;;;4981492;28;20596;-68
2022/06/26 07:55:51;;;;;;;25.40;23.30;;;19.10;99.90;;;;;;4972196;28;20049;-67
2022/06/26 07:58:17;;;;;;;24.00;21.90;;;19.30;99.90;;;;;;4990313;28;20049;-68
2022/06/26 08:00:43;;;;;;;25.63;23.38;;;19.60;99.90;;;;;;4979679;28;20508;-69
2022/06/26 08:03:11;;;;;;;22.38;20.48;;;19.80;99.90;;;;;;4981340;28;20050;-68
2022/06/26 08:05:37;;;;;;;23.80;21.77;;;20.00;99.90;;;;;;5000648;28;20058;-68
2022/06/26 08:08:04;;;;;;;23.98;21.73;;;20.10;99.90;;;;;;4972571;28;20033;-69
2022/06/26 08:10:31;;;;;;;25.05;22.85;;;20.10;99.90;;;;;;4986842;28;20543;-69
2022/06/26 08:12:57;;;;;;;23.38;21.23;;;20.30;99.90;;;;;;4989116;28;20049;-69
2022/06/26 08:15:24;;;;;;;22.55;20.55;;;20.20;99.90;;;;;;4989525;28;20046;-69
2022/06/26 08:17:50;;;;;;;18.90;17.10;;;20.00;99.90;;;;;;4986491;28;21469;-69
2022/06/26 08:20:16;;;;;;;16.98;15.52;;;20.00;99.90;;;;;;4988700;28;20053;-69
2022/06/26 08:22:42;;;;;;;16.67;15.18;;;20.00;99.90;;;;;;4981606;28;20042;-69
2022/06/26 08:25:08;;;;;;;17.08;15.48;;;20.10;99.90;;;;;;4986454;28;20128;-69
2022/06/26 08:27:34;;;;;;;16.13;14.68;;;20.30;99.90;;;;;;4987796;28;20054;-69
2022/06/26 08:30:00;;;;;;;12.00;10.80;;;20.40;99.90;;;;;;4986948;28;20050;-69
2022/06/26 08:32:26;;;;;;;10.18;9.18;;;20.50;99.90;;;;;;4990091;28;20062;-69
2022/06/26 08:34:52;;;;;;;9.93;8.93;;;20.70;99.90;;;;;;4972428;28;20068;-69
2022/06/26 08:37:18;;;;;;;10.20;9.30;;;20.80;99.90;;;;;;4964547;28;20038;-68
2022/06/26 08:39:43;;;;;;;10.52;9.43;;;20.90;99.90;;;;;;4978294;28;20590;-68
2022/06/26 08:42:10;;;;;;;6.18;5.57;;;20.90;99.90;;;;;;4988457;28;20057;-70
2022/06/26 08:44:42;;;;;;;4.75;3.92;;;20.90;99.90;;;;;;4987829;28;20154;-69
2022/06/26 08:47:10;;;;;;;8.52;5.13;;;20.90;99.90;;;;;;4979312;28;20050;-69
2022/06/26 08:49:37;;;;;;;8.25;5.78;;;20.80;99.90;;;;;;4979957;28;20096;-70
2022/06/26 08:52:03;;;;;;;6.32;4.40;;;20.80;99.90;;;;;;4987743;28;20042;-69
2022/06/26 08:54:31;;;;;;;5.50;4.75;;;20.90;99.90;;;;;;4972892;28;20137;-69
2022/06/26 08:56:57;;;;;;;7.65;5.70;;;21.10;99.90;;;;;;4983464;28;20888;-69
2022/06/26 08:59:23;;;;;;;5.97;5.30;;;21.20;99.90;;;;;;4980508;28;20113;-69
2022/06/26 09:01:49;;;;;;;6.85;5.82;;;21.30;99.90;;;;;;4993004;28;20073;-68
2022/06/26 09:04:15;;;;;;;5.57;4.82;;;21.40;99.90;;;;;;4987297;28;20083;-69
2022/06/26 09:06:43;;;;;;;6.43;4.63;;;21.50;99.90;;;;;;4993702;28;20054;-69
2022/06/26 09:09:36;;;;;;;7.95;5.88;;;21.60;99.90;;;;;;4988442;28;20433;-68
2022/06/26 09:12:01;;;;;;;5.47;4.90;;;21.70;99.90;;;;;;4987618;28;20077;-69
2022/06/26 09:14:29;;;;;;;7.53;4.50;;;21.80;99.90;;;;;;4986864;28;20096;-69
2022/06/26 09:16:56;;;;;;;6.88;4.47;;;21.80;99.90;;;;;;4987694;28;20060;-69
2022/06/26 09:19:26;;;;;;;6.85;4.38;;;21.80;99.90;;;;;;4978774;28;20053;-68
2022/06/26 09:22:04;;;;;;;4.57;4.03;;;21.80;99.90;;;;;;4970540;28;20050;-69
2022/06/26 09:24:32;;;;;;;5.00;3.75;;;21.80;99.90;;;;;;4992358;28;20063;-69
2022/06/26 09:27:10;;;;;;;5.47;3.83;;;21.70;99.90;;;;;;4987843;28;20046;-69
2022/06/26 09:29:37;;;;;;;7.43;4.78;;;21.70;99.90;;;;;;4972914;28;20180;-68
2022/06/26 09:32:08;;;;;;;7.40;5.60;;;21.80;99.90;;;;;;4986629;28;20497;-68
2022/06/26 09:34:33;;;;;;;7.43;4.47;;;21.80;99.90;;;;;;4986709;28;20570;-69
2022/06/26 09:37:05;;;;;;;6.30;4.25;;;21.70;99.90;;;;;;4985605;28;20034;-69
2022/06/26 09:39:33;;;;;;;4.65;3.90;;;21.80;99.90;;;;;;4984416;28;20050;-69
2022/06/26 09:42:27;;;;;;;6.95;4.70;;;21.90;99.90;;;;;;4987232;28;20112;-68
2022/06/26 09:44:54;;;;;;;4.68;3.13;;;21.90;99.90;;;;;;4979550;28;20081;-68
2022/06/26 09:47:28;;;;;;;5.10;3.92;;;22.00;99.90;;;;;;4987974;28;20423;-68
2022/06/26 09:49:59;;;;;;;5.75;4.57;;;22.00;99.90;;;;;;4986975;28;20173;-68
2022/06/26 09:52:31;;;;;;;6.57;4.32;;;21.90;99.90;;;;;;4984951;28;20045;-68
2022/06/26 09:54:59;;;;;;;4.70;3.90;;;21.80;99.90;;;;;;4984507;28;20042;-69
2022/06/26 09:57:26;;;;;;;6.45;3.92;;;21.70;99.90;;;;;;4985988;28;20054;-68
2022/06/26 09:59:52;;;;;;;5.25;4.05;;;21.70;99.90;;;;;;4979175;28;20050;-68
2022/06/26 10:07:55;;;;;;;7.05;3.88;;;21.90;99.90;;;;;;4984741;28;20053;-69
2022/06/26 10:10:23;;;;;;;5.50;3.58;;;21.90;99.90;;;;;;4978003;28;20573;-69
2022/06/26 10:12:53;;;;;;;4.25;3.17;;;21.90;99.90;;;;;;4985130;28;20173;-68
2022/06/26 10:15:24;;;;;;;5.60;3.20;;;21.80;99.90;;;;;;4986810;28;20428;-68
2022/06/26 10:18:11;;;;;;;5.28;3.28;;;21.80;99.90;;;;;;4984151;28;20428;-69
2022/06/26 10:20:39;;;;;;;4.25;3.10;;;21.90;99.90;;;;;;4986490;28;20077;-68
2022/06/26 10:23:05;;;;;;;4.30;2.63;;;22.00;99.90;;;;;;4978061;28;20070;-68
2022/06/26 10:25:31;;;;;;;4.28;2.40;;;22.00;99.90;;;;;;5012498;28;20084;-68
2022/06/26 10:27:58;;;;;;;3.85;1.98;;;22.00;99.90;;;;;;4963180;28;20332;-68
2022/06/26 10:30:29;;;;;;;4.07;2.00;;;21.90;99.90;;;;;;4951079;28;20049;-68
2022/06/26 10:33:20;;;;;;;4.13;2.10;;;21.80;99.90;;;;;;4988150;28;20420;-69
2022/06/26 10:35:51;;;;;;;5.00;2.72;;;21.80;99.90;;;;;;4985703;28;20078;-68
2022/06/26 10:38:25;;;;;;;6.65;2.78;;;21.70;99.90;;;;;;4969695;28;20199;-69
2022/06/26 10:44:03;;;;;;;5.03;2.67;;;21.60;99.90;;;;;;4986312;28;20086;-68
2022/06/26 10:46:50;;;;;;;4.55;2.97;;;21.60;99.90;;;;;;4994902;28;20062;-69
2022/06/26 10:49:16;;;;;;;3.88;2.60;;;21.60;99.90;;;;;;4985191;28;20493;-68
2022/06/26 10:51:44;;;;;;;5.00;2.53;;;21.60;99.90;;;;;;4969027;28;20278;-68
2022/06/26 10:54:28;;;;;;;5.25;2.80;;;21.60;99.90;;;;;;4971036;28;20052;-68
2022/06/26 10:57:12;;;;;;;4.40;2.70;;;21.50;99.90;;;;;;4984659;28;20054;-68
2022/06/26 10:59:40;;;;;;;4.93;3.00;;;21.60;99.90;;;;;;4983487;28;20157;-68
2022/06/26 11:02:07;;;;;;;6.03;2.75;;;21.60;99.90;;;;;;4983211;28;20041;-69
2022/06/26 11:04:54;;;;;;;3.90;2.67;;;21.60;99.90;;;;;;4986642;28;20362;-68
2022/06/26 11:07:20;;;;;;;5.18;3.03;;;21.70;99.90;;;;;;4968430;28;20050;-68
2022/06/26 11:09:46;;;;;;;6.85;2.80;;;21.70;99.90;;;;;;4984775;28;20129;-70
2022/06/26 11:12:13;;;;;;;6.25;3.17;;;21.70;99.90;;;;;;4968788;28;20156;-68
2022/06/26 11:14:39;;;;;;;6.20;2.83;;;21.80;99.90;;;;;;4980404;28;20093;-69
2022/06/26 11:17:07;;;;;;;6.25;3.13;;;21.90;99.90;;;;;;4966848;28;20046;-69
2022/06/26 11:20:46;;;;;;;4.53;2.40;;;22.00;99.90;;;;;;4938858;28;20047;-69
2022/06/26 11:22:19;;;;;;;4.72;2.30;;;22.10;99.90;;;;;;4976425;28;20113;-69
2022/06/26 11:24:49;;;;;;;4.47;2.67;;;22.10;99.90;;;;;;4964578;28;20038;-68
2022/06/26 11:27:15;;;;;;;;;;;22.10;99.90;;;;;;4975418;28;20039;-69
2022/06/26 11:29:41;;;;;;;3.53;2.40;;;22.10;99.90;;;;;;4988519;28;20290;-69
2022/06/26 11:32:07;;;;;;;5.78;2.80;;;22.10;99.90;;;;;;4987871;28;20038;-69
2022/06/26 11:34:33;;;;;;;5.10;2.30;;;22.10;99.90;;;;;;4966371;28;20054;-69
2022/06/26 11:37:01;;;;;;;6.43;2.38;;;22.00;99.90;;;;;;4985996;28;20120;-69
2022/06/26 11:39:41;;;;;;;4.75;2.65;;;22.00;99.90;;;;;;4965374;28;20742;-69
2022/06/26 11:42:33;;;;;;;4.80;2.83;;;22.00;99.90;;;;;;4987115;28;20057;-69
2022/06/26 11:45:00;;;;;;;4.18;2.47;;;22.10;99.90;;;;;;4987060;28;20042;-70
2022/06/26 11:47:26;;;;;;;6.70;2.50;;;22.20;99.90;;;;;;4984566;28;20042;-69
2022/06/26 11:49:51;;;;;;;5.22;2.55;;;22.30;99.90;;;;;;4973078;28;20042;-69
2022/06/26 11:52:17;;;;;;;5.35;2.70;;;22.30;99.90;;;;;;4981418;28;20038;-69
2022/06/26 11:54:44;;;;;;;4.78;2.35;;;22.30;99.90;;;;;;4964469;28;20108;-70
2022/06/26 11:57:11;;;;;;;4.60;2.63;;;22.40;99.90;;;;;;4981909;28;20140;-69
2022/06/26 11:59:44;;;;;;;4.63;2.40;;;22.40;99.90;;;;;;4986701;28;20054;-68
2022/06/26 12:02:23;;;;;;;4.47;2.13;;;22.40;99.90;;;;;;4973161;28;20069;-69
2022/06/26 12:05:00;;;;;;;5.95;2.92;;;22.40;99.90;;;;;;4992214;28;20409;-69
2022/06/26 12:07:27;;;;;;;4.80;2.80;;;22.40;99.90;;;;;;4989568;28;20489;-69
2022/06/26 12:09:52;;;;;;;4.90;2.28;;;22.40;99.90;;;;;;4980836;28;20134;-69
2022/06/26 12:12:18;;;;;;;6.72;2.85;;;22.30;99.90;;;;;;4981726;28;20117;-69
2022/06/26 12:14:52;;;;;;;5.10;2.65;;;22.40;99.90;;;;;;4988423;28;20042;-70
2022/06/26 12:17:26;;;;;;;3.95;2.47;;;22.40;99.90;;;;;;4986776;28;20132;-69
2022/06/26 12:19:52;;;;;;;5.75;3.05;;;22.40;99.90;;;;;;4988484;28;20049;-69
2022/06/26 12:22:29;;;;;;;5.50;2.80;;;22.30;99.90;;;;;;4988048;28;20042;-69
2022/06/26 12:24:56;;;;;;;7.60;2.80;;;22.30;99.90;;;;;;4986966;28;20574;-69
2022/06/26 12:27:36;;;;;;;4.68;2.70;;;22.30;99.90;;;;;;4987126;28;20374;-69
2022/06/26 12:30:34;;;;;;;5.25;2.53;;;22.20;99.90;;;;;;4969588;28;20046;-69
2022/06/26 12:33:04;;;;;;;5.53;2.83;;;22.10;99.90;;;;;;5013255;28;20107;-69
2022/06/26 12:35:31;;;;;;;4.72;2.97;;;22.10;99.90;;;;;;4998243;28;20034;-70
2022/06/26 12:37:59;;;;;;;5.22;3.17;;;22.10;99.90;;;;;;4980182;28;20050;-69
2022/06/26 12:40:25;;;;;;;7.90;2.75;;;22.10;99.90;;;;;;4987417;28;20049;-70
2022/06/26 12:42:51;;;;;;;6.10;2.75;;;22.20;99.90;;;;;;4970119;28;20080;-69
2022/06/26 12:45:18;;;;;;;6.43;2.70;;;22.10;99.90;;;;;;4963000;28;20317;-70
2022/06/26 12:47:47;;;;;;;6.55;2.85;;;22.10;99.90;;;;;;4986894;28;20060;-69
2022/06/26 12:50:13;;;;;;;7.55;2.97;;;22.00;99.90;;;;;;4989144;28;20039;-70
2022/06/26 12:52:39;;;;;;;6.30;3.03;;;21.90;99.90;;;;;;4988242;28;20052;-70